createdAt,value
2022-10-01T11:19:11.575Z,67.24
2022-10-01T11:22:03.234Z,62.98
2022-10-01T11:24:37.107Z,62.54
2022-10-01T11:27:04.755Z,62.99
2022-10-01T11:29:38.826Z,63.30
2022-10-01T11:32:29.980Z,63.57
2022-10-01T11:35:10.112Z,62.84
2022-10-01T11:37:41.555Z,64.85
2022-10-01T11:40:27.502Z,65.04
2022-10-01T11:43:03.285Z,62.82
2022-10-01T11:45:44.016Z,62.76
2022-10-01T11:48:26.534Z,63.29
2022-10-01T11:51:01.340Z,63.40
2022-10-01T11:53:48.626Z,64.94
2022-10-01T11:56:41.436Z,60.86
2022-10-01T11:59:17.478Z,58.70
2022-10-01T12:02:01.218Z,59.12
2022-10-01T12:04:32.533Z,57.13
2022-10-01T12:07:23.454Z,59.57
2022-10-01T12:09:51.093Z,56.08
2022-10-01T12:12:23.978Z,58.95
2022-10-01T12:15:06.963Z,60.75
2022-10-01T12:17:52.887Z,58.90
2022-10-01T12:20:46.827Z,59.43
2022-10-01T12:23:32.252Z,58.15
2022-10-01T12:26:07.788Z,56.49
2022-10-01T12:28:59.301Z,55.58
2022-10-01T12:31:39.965Z,57.31
2022-10-01T12:34:39.171Z,58.39
2022-10-01T12:37:24.856Z,55.79
2022-10-01T12:40:26.522Z,56.37
2022-10-01T12:42:59.876Z,57.69
2022-10-01T12:45:48.053Z,58.14
2022-10-01T12:48:29.251Z,55.09
2022-10-01T12:51:39.099Z,57.04
2022-10-01T12:54:34.236Z,55.28
2022-10-01T12:57:14.117Z,56.62
2022-10-01T13:00:22.493Z,56.27
2022-10-01T13:03:09.021Z,56.94
2022-10-01T13:05:40.146Z,54.66
2022-10-01T13:08:16.418Z,57.18
2022-10-01T13:10:57.243Z,56.53
2022-10-01T13:13:34.797Z,56.30
2022-10-01T13:16:37.625Z,54.50
2022-10-01T13:19:24.794Z,57.07
2022-10-01T13:21:53.492Z,57.93
2022-10-01T13:24:34.877Z,54.90
2022-10-01T13:27:11.390Z,54.89
2022-10-01T13:29:55.026Z,55.52
2022-10-01T13:32:28.141Z,56.19
2022-10-01T13:34:57.433Z,55.42
2022-10-01T13:37:36.154Z,53.54
2022-10-01T13:40:05.964Z,54.90
2022-10-01T13:42:48.665Z,54.63
2022-10-01T13:45:37.497Z,54.61
2022-10-01T13:48:32.520Z,55.27
2022-10-01T13:51:13.282Z,54.18
2022-10-01T13:53:45.056Z,55.38
2022-10-01T13:56:28.185Z,54.37
2022-10-01T13:58:56.020Z,54.56
2022-10-01T14:01:24.476Z,53.10
2022-10-01T14:04:07.092Z,53.55
2022-10-01T14:06:42.686Z,53.50
2022-10-01T14:09:19.394Z,52.37
2022-10-01T14:12:11.081Z,52.26
2022-10-01T14:15:13.951Z,51.33
2022-10-01T14:17:48.894Z,50.67
2022-10-01T14:20:27.959Z,51.73
2022-10-01T14:23:20.094Z,51.97
2022-10-01T14:25:59.027Z,52.97
2022-10-01T14:28:35.033Z,52.46
2022-10-01T14:31:28.291Z,51.89
2022-10-01T14:34:23.658Z,53.02
2022-10-01T14:36:54.340Z,53.19
2022-10-01T14:39:28.304Z,52.49
2022-10-01T14:41:58.458Z,51.87
2022-10-01T14:44:47.273Z,51.85
2022-10-01T14:47:23.619Z,53.30
2022-10-01T14:49:51.989Z,53.29
2022-10-01T14:52:23.912Z,52.80
2022-10-01T14:55:08.104Z,51.47
2022-10-01T14:57:42.816Z,52.84
2022-10-01T15:00:21.023Z,52.67
2022-10-01T15:02:52.185Z,51.21
2022-10-01T15:05:27.620Z,51.28
2022-10-01T15:07:55.371Z,52.47
2022-10-01T15:10:27.982Z,51.95
2022-10-01T15:12:56.712Z,52.52
2022-10-01T15:15:40.756Z,53.30
2022-10-01T15:18:14.641Z,52.62
2022-10-01T15:20:58.871Z,53.40
2022-10-01T15:23:33.009Z,52.45
2022-10-01T15:26:05.964Z,53.17
2022-10-01T15:28:38.639Z,53.10
2022-10-01T15:31:08.179Z,52.76
2022-10-01T15:33:41.473Z,52.15
2022-10-01T15:36:19.880Z,50.68
2022-10-01T15:38:50.809Z,52.59
2022-10-01T15:41:32.348Z,52.16
2022-10-01T15:44:04.956Z,52.72
2022-10-01T15:46:35.696Z,52.76
2022-10-01T15:49:18.664Z,53.39
2022-10-01T15:52:23.426Z,53.78
2022-10-01T15:55:00.230Z,53.79
2022-10-01T15:57:33.494Z,55.42
2022-10-01T16:00:01.520Z,55.20
2022-10-01T16:02:32.879Z,55.23
2022-10-01T16:05:06.753Z,55.13
2022-10-01T16:07:35.843Z,57.07
2022-10-01T16:10:34.379Z,57.23
2022-10-01T16:13:36.320Z,56.38
2022-10-01T16:16:24.920Z,55.96
2022-10-01T16:18:56.670Z,55.80
2022-10-01T16:21:26.916Z,55.90
2022-10-01T16:23:56.642Z,57.47
2022-10-01T16:26:38.185Z,58.21
2022-10-01T16:29:24.423Z,58.30
2022-10-01T16:31:53.574Z,58.62
2022-10-01T16:34:21.911Z,59.54
2022-10-01T16:36:50.367Z,58.86
2022-10-01T16:39:18.084Z,59.02
2022-10-01T16:42:12.104Z,59.08
2022-10-01T16:44:40.550Z,58.92
2022-10-01T16:47:14.668Z,58.85
2022-10-01T16:49:42.665Z,59.34
2022-10-01T16:52:16.477Z,59.54
2022-10-01T16:54:44.890Z,59.75
2022-10-01T16:57:12.919Z,60.08
2022-10-01T16:59:40.550Z,60.11
2022-10-01T17:02:13.681Z,60.72
2022-10-01T17:04:42.003Z,60.31
2022-10-01T17:07:09.473Z,60.58
2022-10-01T17:09:37.316Z,60.83
2022-10-01T17:12:04.994Z,60.70
2022-10-01T17:14:32.546Z,61.14
2022-10-01T17:17:00.201Z,61.81
2022-10-01T17:19:28.071Z,61.97
2022-10-01T17:21:56.051Z,63.15
2022-10-01T17:24:24.235Z,62.61
2022-10-01T17:26:52.697Z,62.55
2022-10-01T17:29:20.211Z,63.29
2022-10-01T17:31:53.459Z,63.51
2022-10-01T17:34:21.923Z,63.77
2022-10-01T17:36:49.695Z,63.78
2022-10-01T17:39:17.462Z,64.40
2022-10-01T17:41:45.008Z,63.85
2022-10-01T17:44:12.669Z,63.93
2022-10-01T17:46:40.367Z,64.29
2022-10-01T17:49:08.816Z,64.59
2022-10-01T17:51:39.506Z,65.04
2022-10-01T17:54:07.158Z,65.52
2022-10-01T17:56:37.438Z,64.72
2022-10-01T17:59:06.170Z,64.55
2022-10-01T18:01:34.830Z,64.44
2022-10-01T18:04:03.966Z,65.23
2022-10-01T18:06:34.005Z,65.69
2022-10-01T18:09:02.456Z,66.52
2022-10-01T18:11:30.216Z,65.34
2022-10-01T18:13:58.122Z,66.33
2022-10-01T18:16:27.425Z,67.31
2022-10-01T18:21:48.593Z,68.48
2022-10-01T18:24:17.424Z,68.68
2022-10-01T18:26:45.915Z,68.67
2022-10-01T18:29:22.065Z,68.50
2022-10-01T18:32:04.861Z,68.80
2022-10-01T18:34:55.797Z,69.29
2022-10-01T18:37:27.528Z,69.60
2022-10-01T18:40:10.196Z,69.93
2022-10-01T18:42:49.349Z,69.64
2022-10-01T18:45:27.343Z,69.79
2022-10-01T18:48:30.149Z,70.54
2022-10-01T18:51:15.851Z,70.25
2022-10-01T18:54:15.750Z,70.35
2022-10-01T18:57:01.191Z,70.03
2022-10-01T18:59:43.006Z,69.78
2022-10-01T19:02:45.841Z,69.90
2022-10-01T19:05:37.150Z,69.29
2022-10-01T19:08:29.371Z,69.95
2022-10-01T19:11:21.889Z,69.65
2022-10-01T19:13:55.794Z,68.85
2022-10-01T19:16:47.899Z,68.47
2022-10-01T19:19:38.341Z,69.00
2022-10-01T19:22:41.675Z,68.80
2022-10-01T19:25:19.199Z,68.02
2022-10-01T19:27:58.527Z,68.70
2022-10-01T19:30:38.195Z,68.07
2022-10-01T19:33:13.995Z,67.88
2022-10-01T19:35:48.744Z,67.14
2022-10-01T19:38:37.512Z,67.51
2022-10-01T19:41:46.088Z,68.47
2022-10-01T19:44:42.410Z,69.50
2022-10-01T19:47:37.733Z,69.43
2022-10-01T19:50:20.333Z,69.87
2022-10-01T19:52:51.704Z,69.92
2022-10-01T19:55:22.315Z,69.86
2022-10-01T19:57:50.329Z,70.08
2022-10-01T20:00:21.928Z,70.12
2022-10-01T20:03:12.189Z,69.88
2022-10-01T20:05:50.081Z,70.68
2022-10-01T20:08:29.421Z,70.88
2022-10-01T20:11:30.360Z,71.02
2022-10-01T20:14:40.401Z,71.43
2022-10-01T20:17:40.290Z,71.14
2022-10-01T20:20:13.263Z,71.38
2022-10-01T20:23:14.823Z,71.83
2022-10-01T20:26:20.024Z,72.57
2022-10-01T20:29:32.281Z,73.47
2022-10-01T20:32:21.184Z,73.75
2022-10-01T20:35:16.200Z,73.70
2022-10-01T20:38:02.805Z,74.26
2022-10-01T20:40:43.138Z,74.09
2022-10-01T20:43:20.664Z,74.51
2022-10-01T20:45:53.996Z,75.20
2022-10-01T20:48:41.966Z,75.23
2022-10-01T20:51:19.771Z,75.14
2022-10-01T20:53:59.186Z,75.90
2022-10-01T20:56:43.492Z,75.32
2022-10-01T20:59:27.561Z,75.62
2022-10-01T21:02:05.305Z,76.86
2022-10-01T21:04:40.483Z,77.37
2022-10-01T21:07:49.678Z,77.79
2022-10-01T21:10:36.729Z,78.01
2022-10-01T21:13:44.762Z,77.72
2022-10-01T21:16:38.246Z,77.66
2022-10-01T21:19:32.245Z,77.42
2022-10-01T21:22:18.116Z,78.33
2022-10-01T21:25:10.110Z,78.85
2022-10-01T21:27:57.919Z,78.90
2022-10-01T21:30:28.542Z,79.05
2022-10-01T21:33:15.874Z,79.23
2022-10-01T21:36:06.250Z,79.04
2022-10-01T21:39:06.001Z,79.10
2022-10-01T21:42:04.993Z,79.33
2022-10-01T21:44:50.715Z,79.54
2022-10-01T21:47:34.801Z,78.84
2022-10-01T21:50:35.935Z,78.63
2022-10-01T21:53:32.579Z,78.57
2022-10-01T21:56:15.269Z,78.61
2022-10-01T21:59:07.922Z,78.98
2022-10-01T22:02:03.730Z,78.83
2022-10-01T22:04:50.760Z,79.56
2022-10-01T22:07:31.955Z,79.46
2022-10-01T22:10:05.700Z,79.52
2022-10-01T22:12:40.369Z,79.03
2022-10-01T22:15:39.934Z,78.85
2022-10-01T22:18:26.687Z,78.87
2022-10-01T22:20:59.320Z,79.25
2022-10-01T22:23:32.089Z,79.40
2022-10-01T22:26:07.921Z,79.38
2022-10-01T22:28:40.769Z,78.93
2022-10-01T22:31:19.171Z,78.47
2022-10-01T22:33:57.317Z,78.26
2022-10-01T22:36:36.954Z,78.45
2022-10-01T22:39:21.229Z,78.14
2022-10-01T22:42:03.681Z,78.35
2022-10-01T22:44:31.351Z,78.19
2022-10-01T22:47:20.743Z,78.35
2022-10-01T22:50:20.714Z,79.07
2022-10-01T22:53:13.082Z,78.99
2022-10-01T22:55:53.108Z,78.80
2022-10-01T22:58:39.527Z,78.88
2022-10-01T23:01:38.052Z,78.97
2022-10-01T23:04:30.858Z,79.16
2022-10-01T23:06:58.435Z,79.58
2022-10-01T23:09:43.882Z,79.80
2022-10-01T23:12:49.470Z,78.86
2022-10-01T23:15:45.963Z,78.66
2022-10-01T23:18:28.419Z,79.11
2022-10-01T23:21:26.317Z,78.93
2022-10-01T23:24:01.887Z,79.43
2022-10-01T23:26:38.903Z,80.16
2022-10-01T23:29:44.134Z,79.42
2022-10-01T23:32:49.255Z,80.48
2022-10-01T23:35:21.334Z,79.93
2022-10-01T23:38:29.525Z,80.04
2022-10-01T23:41:09.880Z,79.98
2022-10-01T23:43:48.338Z,80.13
2022-10-01T23:46:33.726Z,79.98
2022-10-01T23:49:19.104Z,79.81
2022-10-01T23:52:00.994Z,79.75
2022-10-01T23:55:36.420Z,79.64
2022-10-01T23:58:06.700Z,79.79
